Time;durP1;ratioP1;P1;durP2;ratioP2;P2;SDS_P1;SDS_P2;PMS_P1;PMS_P2;Temp;Humidity;BMP_temperature;BMP_pressure;BME280_temperature;BME280_humidity;BME280_pressure;Samples;Min_cycle;Max_cycle;Signal;HPM_P1;HPM_P2
2021/11/27 00:01:43;;;;;;;16.08;4.28;;;18.80;94.80;;;;;;5075087;28;20379;-61
2021/11/27 00:04:12;;;;;;;15.18;4.75;;;18.80;94.70;;;;;;5074876;28;20020;-60
2021/11/27 00:06:39;;;;;;;10.60;3.58;;;18.90;94.70;;;;;;5073473;28;20033;-57
2021/11/27 00:09:07;;;;;;;12.30;3.95;;;18.80;94.70;;;;;;5074240;28;20506;-59
2021/11/27 00:11:35;;;;;;;20.58;5.35;;;18.80;94.70;;;;;;5075176;28;20029;-57
2021/11/27 00:14:05;;;;;;;14.93;4.55;;;18.90;94.70;;;;;;5073540;28;20036;-58
2021/11/27 00:16:34;;;;;;;18.48;4.57;;;18.90;94.70;;;;;;5074810;28;20024;-57
2021/11/27 00:19:04;;;;;;;16.17;4.20;;;18.90;94.70;;;;;;5074862;28;20075;-57
2021/11/27 00:21:31;;;;;;;14.93;4.13;;;18.90;94.70;;;;;;5074309;28;20035;-60
2021/11/27 00:23:59;;;;;;;14.27;4.40;;;18.90;94.60;;;;;;5074449;28;20025;-60
2021/11/27 00:26:26;;;;;;;16.88;3.55;;;18.90;94.60;;;;;;5074214;28;20147;-58
2021/11/27 00:28:54;;;;;;;12.05;4.07;;;18.90;94.60;;;;;;5074103;28;20420;-58
2021/11/27 00:31:25;;;;;;;13.00;4.03;;;19.00;94.60;;;;;;5074344;28;20024;-59
2021/11/27 00:33:53;;;;;;;13.07;3.42;;;19.00;94.60;;;;;;5074240;28;20070;-53
2021/11/27 00:36:25;;;;;;;20.65;4.78;;;19.00;94.50;;;;;;5073179;28;20483;-59
2021/11/27 00:38:54;;;;;;;15.90;3.75;;;19.00;94.50;;;;;;5073897;28;20028;-57
2021/11/27 00:41:21;;;;;;;13.82;4.22;;;19.00;94.50;;;;;;5074096;28;20032;-60
2021/11/27 00:43:50;;;;;;;18.58;4.40;;;19.00;94.40;;;;;;5074763;28;20071;-56
2021/11/27 00:46:18;;;;;;;14.95;4.68;;;19.10;94.40;;;;;;5073488;28;20119;-55
2021/11/27 00:48:47;;;;;;;13.40;3.90;;;19.10;94.30;;;;;;5073784;28;20025;-59
2021/11/27 00:51:18;;;;;;;13.38;3.63;;;19.10;94.30;;;;;;5073729;28;20035;-58
2021/11/27 00:53:48;;;;;;;13.85;3.88;;;19.10;94.30;;;;;;5056586;28;20097;-55
2021/11/27 00:56:16;;;;;;;12.10;3.83;;;19.20;94.30;;;;;;5073723;28;20168;-62
2021/11/27 00:58:49;;;;;;;14.35;3.97;;;19.10;94.30;;;;;;5073661;28;20028;-58
2021/11/27 01:01:27;;;;;;;13.43;4.05;;;19.20;94.20;;;;;;5072521;28;20028;-59
2021/11/27 01:03:57;;;;;;;20.60;5.55;;;19.20;94.20;;;;;;5056038;28;20033;-60
2021/11/27 01:06:27;;;;;;;17.60;4.35;;;19.20;94.20;;;;;;5073593;28;20060;-61
2021/11/27 01:09:04;;;;;;;14.15;4.18;;;19.20;94.20;;;;;;5072445;28;20025;-59
2021/11/27 01:11:34;;;;;;;14.25;3.92;;;19.20;94.20;;;;;;5072301;28;20144;-61
2021/11/27 01:14:10;;;;;;;16.42;4.10;;;19.20;94.20;;;;;;5073890;28;20016;-59
2021/11/27 01:16:41;;;;;;;10.13;3.42;;;19.20;94.20;;;;;;5072145;28;20109;-56
2021/11/27 01:19:10;;;;;;;12.38;3.70;;;19.20;94.10;;;;;;5073483;28;20332;-57
2021/11/27 01:21:42;;;;;;;16.65;4.80;;;19.20;94.00;;;;;;5073535;28;20029;-58
2021/11/27 01:24:12;;;;;;;10.77;4.38;;;19.20;94.00;;;;;;5073581;28;20418;-60
2021/11/27 01:26:40;;;;;;;14.23;3.60;;;19.20;93.90;;;;;;5073262;28;20036;-59
2021/11/27 01:29:08;;;;;;;10.30;3.47;;;19.30;93.90;;;;;;5072146;28;20036;-55
2021/11/27 01:31:38;;;;;;;13.25;3.63;;;19.30;93.90;;;;;;5066061;28;20032;-54
2021/11/27 01:34:07;;;;;;;12.10;4.10;;;19.30;93.90;;;;;;5071922;28;20024;-59
2021/11/27 01:36:35;;;;;;;15.90;4.57;;;19.30;93.90;;;;;;5072189;28;20025;-53
2021/11/27 01:39:06;;;;;;;12.15;3.75;;;19.40;94.00;;;;;;5069341;28;20024;-58
2021/11/27 01:41:36;;;;;;;15.30;3.97;;;19.40;94.00;;;;;;5070677;28;20136;-56
2021/11/27 01:44:04;;;;;;;12.75;4.22;;;19.40;93.90;;;;;;5069814;28;20065;-54
2021/11/27 01:46:33;;;;;;;11.02;4.35;;;19.40;94.00;;;;;;5071366;28;20487;-57
2021/11/27 01:49:07;;;;;;;15.52;4.60;;;19.40;93.90;;;;;;5066206;28;20502;-54
2021/11/27 01:51:36;;;;;;;13.77;5.00;;;19.50;93.90;;;;;;5071382;28;20020;-56
2021/11/27 01:54:07;;;;;;;13.07;4.45;;;19.50;93.90;;;;;;5070714;28;20050;-56
2021/11/27 01:56:43;;;;;;;17.45;4.20;;;19.50;93.80;;;;;;5071882;28;20502;-56
2021/11/27 01:59:12;;;;;;;13.45;4.43;;;19.60;93.80;;;;;;5065427;28;20025;-61
2021/11/27 02:01:41;;;;;;;17.60;5.13;;;19.60;93.80;;;;;;5052988;28;20115;-61
2021/11/27 02:04:11;;;;;;;14.32;4.50;;;19.60;93.90;;;;;;5070952;28;20356;-56
2021/11/27 02:06:41;;;;;;;15.45;4.95;;;19.60;93.80;;;;;;5071099;28;20083;-55
2021/11/27 02:09:17;;;;;;;12.15;3.85;;;19.60;93.70;;;;;;5066087;28;20024;-56
2021/11/27 02:11:45;;;;;;;12.50;3.97;;;19.60;93.70;;;;;;5072246;28;20033;-52
2021/11/27 02:14:17;;;;;;;14.45;3.92;;;19.60;93.50;;;;;;5072843;28;20025;-58
2021/11/27 02:17:15;;;;;;;;;;;19.60;93.70;;;;;;5073129;28;20032;-55
2021/11/27 02:19:46;;;;;;;11.98;4.10;;;19.60;93.60;;;;;;5070774;28;19991;-58
2021/11/27 02:22:14;;;;;;;13.73;4.05;;;19.60;93.50;;;;;;5070765;28;20052;-55
2021/11/27 02:24:42;;;;;;;16.10;4.43;;;19.60;93.50;;;;;;5070454;28;20382;-58
2021/11/27 02:27:09;;;;;;;16.73;4.13;;;19.60;93.60;;;;;;5071532;28;20093;-60
2021/11/27 02:29:37;;;;;;;17.40;4.60;;;19.60;93.50;;;;;;5072350;28;20021;-56
2021/11/27 02:32:05;;;;;;;14.02;4.10;;;19.60;93.50;;;;;;5070674;28;20048;-55
2021/11/27 02:34:33;;;;;;;13.88;4.13;;;19.60;93.50;;;;;;5070295;28;20025;-60
2021/11/27 02:37:08;;;;;;;14.45;4.32;;;19.70;93.50;;;;;;5071859;28;20487;-59
2021/11/27 02:39:37;;;;;;;11.93;3.90;;;19.60;93.50;;;;;;5072388;28;20051;-56
2021/11/27 02:42:06;;;;;;;15.65;3.88;;;19.60;93.50;;;;;;5072542;28;20033;-54
2021/11/27 02:44:38;;;;;;;18.45;4.70;;;19.70;93.50;;;;;;5071062;28;20029;-58
2021/11/27 02:47:07;;;;;;;16.60;5.25;;;19.70;93.50;;;;;;5072092;28;20118;-58
2021/11/27 02:49:34;;;;;;;17.67;4.88;;;19.70;93.40;;;;;;5071969;28;20033;-57
2021/11/27 02:52:03;;;;;;;17.65;5.07;;;19.70;93.30;;;;;;5071910;28;20075;-58
2021/11/27 02:54:35;;;;;;;21.13;5.95;;;19.70;93.30;;;;;;5072402;28;20491;-57
2021/11/27 02:57:11;;;;;;;16.60;4.68;;;19.70;93.30;;;;;;5073088;28;20557;-60
2021/11/27 02:59:39;;;;;;;16.43;6.10;;;19.70;93.20;;;;;;5073695;28;20356;-59
2021/11/27 03:02:11;;;;;;;17.42;5.00;;;19.80;93.30;;;;;;5070139;28;20036;-56
2021/11/27 03:04:39;;;;;;;15.52;5.88;;;19.80;93.30;;;;;;5072719;28;20018;-54
2021/11/27 03:07:08;;;;;;;19.33;7.72;;;19.80;93.20;;;;;;5074709;28;20063;-48
2021/11/27 03:09:41;;;;;;;17.50;10.65;;;19.80;93.10;;;;;;5072860;28;20024;-50
2021/11/27 03:12:09;;;;;;;26.92;11.75;;;19.90;93.20;;;;;;5074347;28;20036;-55
2021/11/27 03:17:48;;;;;;;26.42;15.52;;;19.90;93.00;;;;;;5072338;28;20037;-52
2021/11/27 03:20:19;;;;;;;33.75;16.23;;;19.90;92.80;;;;;;5070044;28;20478;-58
2021/11/27 03:22:47;;;;;;;29.77;16.92;;;20.00;92.90;;;;;;5073969;28;20365;-57
2021/11/27 03:25:16;;;;;;;27.52;15.27;;;20.00;92.60;;;;;;5073479;28;20025;-48
2021/11/27 03:27:44;;;;;;;23.92;14.85;;;20.00;92.50;;;;;;5074176;28;20105;-57
2021/11/27 03:30:19;;;;;;;24.52;13.93;;;20.10;92.60;;;;;;5070508;28;20040;-53
2021/11/27 03:32:47;;;;;;;28.55;13.05;;;20.20;92.20;;;;;;5073332;28;20029;-50
2021/11/27 03:35:15;;;;;;;26.83;13.98;;;20.20;92.30;;;;;;5075081;28;20017;-51
2021/11/27 03:37:44;;;;;;;27.63;13.50;;;20.30;92.20;;;;;;5075521;28;20025;-58
2021/11/27 03:40:12;;;;;;;25.30;12.25;;;20.30;92.10;;;;;;5068900;28;20037;-57
2021/11/27 03:42:40;;;;;;;28.33;11.70;;;20.40;91.90;;;;;;5073615;28;20036;-55
2021/11/27 03:45:11;;;;;;;31.40;12.38;;;20.40;91.90;;;;;;5073980;28;20033;-59
2021/11/27 03:48:04;;;;;;;23.30;8.30;;;20.40;89.50;;;;;;5075419;28;20071;-58
2021/11/27 03:50:37;;;;;;;22.60;7.90;;;20.50;86.30;;;;;;5073186;28;20488;-59
2021/11/27 03:53:05;;;;;;;22.67;7.20;;;20.50;84.60;;;;;;5075204;28;20119;-58
2021/11/27 03:55:34;;;;;;;25.83;7.20;;;20.40;84.30;;;;;;5074703;28;20085;-58
2021/11/27 03:58:02;;;;;;;23.63;8.30;;;20.40;81.40;;;;;;5074264;28;20020;-58
2021/11/27 04:00:29;;;;;;;27.08;7.88;;;20.40;83.90;;;;;;5074211;28;20016;-55
2021/11/27 04:02:58;;;;;;;26.25;8.05;;;20.50;83.90;;;;;;5073387;28;20140;-54
2021/11/27 04:05:26;;;;;;;29.33;11.80;;;20.50;82.20;;;;;;5074558;28;20071;-58
2021/11/27 04:07:57;;;;;;;28.33;8.30;;;20.50;83.90;;;;;;5073932;28;20136;-59
2021/11/27 04:10:26;;;;;;;28.85;8.02;;;20.50;83.20;;;;;;5073463;28;20044;-59
2021/11/27 04:12:54;;;;;;;33.53;8.07;;;20.50;83.70;;;;;;5074602;28;20025;-55
2021/11/27 04:15:21;;;;;;;23.63;6.13;;;20.50;83.00;;;;;;5074292;28;20056;-57
2021/11/27 04:17:49;;;;;;;35.03;8.10;;;20.50;82.10;;;;;;5064315;28;20067;-51
2021/11/27 04:20:18;;;;;;;29.60;6.32;;;20.50;82.30;;;;;;5071294;28;20093;-51
2021/11/27 04:22:46;;;;;;;23.38;6.10;;;20.50;81.30;;;;;;5071761;28;20021;-55
2021/11/27 04:25:14;;;;;;;26.20;6.05;;;20.50;83.10;;;;;;5073770;28;20032;-50
2021/11/27 04:27:42;;;;;;;28.67;5.82;;;20.50;82.10;;;;;;5073556;28;20047;-58
2021/11/27 04:30:14;;;;;;;25.50;6.57;;;20.50;82.10;;;;;;5074521;28;20025;-56
2021/11/27 04:32:42;;;;;;;19.15;5.32;;;20.60;83.70;;;;;;5074029;28;20379;-56
2021/11/27 04:35:09;;;;;;;27.50;6.55;;;20.50;83.40;;;;;;5073777;28;20021;-58
2021/11/27 04:37:37;;;;;;;27.80;7.55;;;20.50;83.70;;;;;;5074254;28;20124;-52
2021/11/27 04:40:06;;;;;;;24.42;6.28;;;20.50;82.90;;;;;;5073975;28;20051;-51
2021/11/27 04:42:35;;;;;;;27.13;5.97;;;20.50;82.50;;;;;;5073450;28;20103;-59
2021/11/27 04:45:06;;;;;;;25.23;5.65;;;20.50;84.00;;;;;;5073746;28;20107;-56
2021/11/27 04:47:35;;;;;;;19.10;4.75;;;20.50;82.10;;;;;;5074314;28;20060;-58
2021/11/27 04:50:04;;;;;;;20.20;5.90;;;20.50;82.50;;;;;;5073542;28;20089;-59
2021/11/27 04:52:31;;;;;;;20.05;5.35;;;20.40;81.90;;;;;;5073429;28;20104;-61
2021/11/27 04:54:58;;;;;;;28.70;5.50;;;20.40;83.10;;;;;;5071976;28;20101;-60
2021/11/27 04:57:26;;;;;;;20.02;5.15;;;20.40;82.60;;;;;;5072629;28;20386;-58
2021/11/27 04:59:54;;;;;;;21.95;5.00;;;20.40;82.60;;;;;;5073482;28;20056;-54
2021/11/27 05:02:21;;;;;;;29.13;5.20;;;20.40;82.90;;;;;;5069843;28;20034;-57
2021/11/27 05:04:52;;;;;;;21.52;4.80;;;20.30;82.70;;;;;;5073329;28;20028;-55
2021/11/27 05:07:19;;;;;;;27.45;5.65;;;20.30;83.10;;;;;;5072444;28;20128;-58
2021/11/27 05:09:47;;;;;;;24.83;5.95;;;20.30;83.10;;;;;;5073328;28;20055;-57
2021/11/27 05:12:14;;;;;;;24.13;5.78;;;20.30;83.20;;;;;;5072425;28;20052;-52
2021/11/27 05:14:42;;;;;;;26.80;5.85;;;20.30;84.10;;;;;;5072131;28;20101;-58
2021/11/27 05:17:09;;;;;;;28.27;5.55;;;20.30;84.40;;;;;;5073514;28;20479;-57
2021/11/27 05:19:37;;;;;;;28.10;5.82;;;20.40;85.20;;;;;;5073298;28;20032;-59
2021/11/27 05:22:04;;;;;;;25.15;6.70;;;20.40;84.20;;;;;;5072135;28;20036;-58
2021/11/27 05:24:32;;;;;;;28.15;6.00;;;20.30;85.30;;;;;;5073358;28;20017;-59
2021/11/27 05:26:59;;;;;;;22.58;5.82;;;20.40;85.80;;;;;;5072583;28;20365;-56
2021/11/27 05:29:27;;;;;;;24.65;6.38;;;20.40;85.70;;;;;;5073187;28;20032;-56
2021/11/27 05:32:00;;;;;;;28.75;6.05;;;20.50;86.00;;;;;;5073478;28;20029;-57
2021/11/27 05:34:34;;;;;;;22.95;5.55;;;20.40;86.30;;;;;;5071590;28;20106;-55
2021/11/27 05:37:05;;;;;;;24.80;5.32;;;20.30;85.20;;;;;;5072888;28;20048;-55
2021/11/27 05:39:33;;;;;;;29.73;5.45;;;20.30;85.20;;;;;;5072731;28;20033;-58
2021/11/27 05:42:00;;;;;;;27.17;5.90;;;20.20;86.00;;;;;;5072542;28;20031;-49
2021/11/27 05:44:27;;;;;;;25.98;5.80;;;20.20;85.80;;;;;;5072982;28;20024;-55
2021/11/27 05:46:55;;;;;;;28.45;6.05;;;20.20;85.10;;;;;;5072704;28;20039;-53
2021/11/27 05:49:22;;;;;;;20.58;5.20;;;20.20;85.40;;;;;;5072572;28;20024;-60
2021/11/27 05:51:50;;;;;;;21.17;6.72;;;20.20;85.30;;;;;;5072840;28;20040;-57
2021/11/27 05:54:17;;;;;;;40.40;5.88;;;20.30;84.60;;;;;;5070906;28;20138;-57
2021/11/27 05:56:44;;;;;;;24.30;6.65;;;20.20;84.40;;;;;;5072725;28;20036;-62
2021/11/27 05:59:12;;;;;;;20.42;4.50;;;20.20;84.90;;;;;;5072748;28;20020;-57
2021/11/27 06:01:39;;;;;;;24.25;5.28;;;20.10;83.80;;;;;;5072732;28;20474;-61
2021/11/27 06:04:07;;;;;;;27.00;5.53;;;20.10;84.50;;;;;;5072239;28;20475;-58
2021/11/27 06:06:35;;;;;;;25.20;5.72;;;20.10;85.00;;;;;;5072358;28;20111;-51
2021/11/27 06:09:03;;;;;;;31.17;5.60;;;20.10;85.50;;;;;;5072254;28;20098;-55
2021/11/27 06:11:30;;;;;;;21.70;5.05;;;20.20;84.40;;;;;;5072977;28;20100;-55
2021/11/27 06:13:57;;;;;;;27.52;6.00;;;20.10;84.30;;;;;;5072137;28;20039;-51
2021/11/27 06:16:25;;;;;;;26.55;6.00;;;20.10;85.60;;;;;;5071835;28;20444;-53
2021/11/27 06:18:52;;;;;;;19.27;5.15;;;20.00;85.40;;;;;;5072231;28;20028;-55
2021/11/27 06:21:22;;;;;;;22.85;5.15;;;20.00;85.40;;;;;;5072095;28;20025;-55
2021/11/27 06:23:54;;;;;;;20.77;4.82;;;19.90;86.80;;;;;;5072343;28;20059;-53
2021/11/27 06:26:24;;;;;;;17.80;4.40;;;19.80;86.60;;;;;;5072593;28;20040;-53
2021/11/27 06:28:52;;;;;;;20.70;4.85;;;19.80;86.30;;;;;;5072296;28;20047;-56
2021/11/27 06:31:20;;;;;;;13.98;3.45;;;19.80;86.80;;;;;;5072453;28;20033;-52
2021/11/27 06:33:47;;;;;;;29.95;5.70;;;19.80;87.10;;;;;;5071668;28;20031;-52
2021/11/27 06:36:15;;;;;;;21.42;4.78;;;19.80;86.60;;;;;;5072481;28;20021;-50
2021/11/27 06:38:42;;;;;;;14.63;4.22;;;19.80;84.50;;;;;;5072231;28;20406;-52
2021/11/27 06:41:12;;;;;;;21.30;4.57;;;19.70;85.70;;;;;;5072446;28;20016;-55
2021/11/27 06:43:40;;;;;;;18.13;4.38;;;19.70;86.30;;;;;;5072174;28;20069;-57
2021/11/27 06:46:07;;;;;;;18.45;5.00;;;19.80;85.30;;;;;;5072188;28;20155;-55
2021/11/27 06:48:34;;;;;;;22.88;4.80;;;19.80;86.60;;;;;;5072426;28;20028;-56
2021/11/27 06:51:02;;;;;;;21.73;3.67;;;19.80;85.60;;;;;;5071197;28;20071;-51
2021/11/27 06:53:29;;;;;;;19.50;4.70;;;19.70;85.70;;;;;;5072307;28;20379;-54
2021/11/27 06:55:57;;;;;;;19.80;4.78;;;19.70;85.00;;;;;;5072033;28;20036;-55
2021/11/27 06:58:24;;;;;;;21.08;5.05;;;19.70;86.50;;;;;;5072810;28;20021;-55
2021/11/27 07:00:52;;;;;;;27.83;5.60;;;19.70;87.00;;;;;;5072370;28;20124;-53
2021/11/27 07:03:19;;;;;;;22.33;5.28;;;19.70;86.70;;;;;;5066045;28;20157;-57
2021/11/27 07:05:46;;;;;;;24.02;5.03;;;19.70;86.60;;;;;;5064677;28;20107;-54
2021/11/27 07:08:14;;;;;;;23.15;4.95;;;19.70;87.60;;;;;;5069449;28;20027;-60
2021/11/27 07:10:43;;;;;;;19.92;5.20;;;19.60;87.40;;;;;;5069893;28;20025;-56
2021/11/27 07:13:10;;;;;;;23.33;5.68;;;19.70;88.10;;;;;;5067869;28;20028;-53
2021/11/27 07:15:38;;;;;;;24.15;6.25;;;19.80;88.10;;;;;;5068873;28;20031;-55
2021/11/27 07:18:05;;;;;;;23.48;4.25;;;19.90;87.70;;;;;;5071086;28;20074;-59
2021/11/27 07:20:33;;;;;;;23.85;5.20;;;19.90;87.60;;;;;;5071346;28;20105;-61
2021/11/27 07:23:00;;;;;;;19.23;4.65;;;20.00;87.70;;;;;;5071183;28;20044;-62
2021/11/27 07:25:30;;;;;;;17.38;4.82;;;20.00;87.10;;;;;;5069647;28;20035;-57
2021/11/27 07:27:58;;;;;;;20.08;5.20;;;20.00;87.20;;;;;;5071217;28;20068;-58
2021/11/27 07:30:25;;;;;;;22.10;4.45;;;20.10;87.50;;;;;;5070912;28;20479;-61
2021/11/27 07:32:52;;;;;;;26.88;5.05;;;20.10;86.80;;;;;;5070203;28;20025;-61
2021/11/27 07:35:20;;;;;;;27.95;5.93;;;20.10;87.10;;;;;;5068589;28;20027;-53
2021/11/27 07:37:47;;;;;;;28.35;4.60;;;20.10;87.00;;;;;;5071179;28;20438;-56
2021/11/27 07:40:15;;;;;;;15.43;4.40;;;20.10;87.30;;;;;;5071017;28;20068;-59
2021/11/27 07:42:42;;;;;;;14.52;4.13;;;20.10;87.20;;;;;;5071668;28;20028;-61
2021/11/27 07:45:10;;;;;;;18.60;4.53;;;20.10;87.40;;;;;;5072059;28;20035;-61
2021/11/27 07:47:37;;;;;;;16.42;4.63;;;20.10;87.50;;;;;;5073608;28;20544;-61
2021/11/27 07:50:08;;;;;;;14.93;4.18;;;20.00;87.60;;;;;;5074770;28;20039;-57
2021/11/27 07:52:35;;;;;;;17.90;4.20;;;20.00;87.70;;;;;;5074903;28;20498;-56
2021/11/27 07:55:03;;;;;;;16.33;3.80;;;20.00;87.80;;;;;;5057105;28;20040;-61
2021/11/27 07:57:30;;;;;;;13.50;4.30;;;20.00;88.00;;;;;;5074767;28;20070;-59
2021/11/27 07:59:57;;;;;;;15.75;4.28;;;20.00;88.10;;;;;;5075134;28;20085;-59
2021/11/27 08:02:25;;;;;;;13.00;3.75;;;20.00;88.20;;;;;;5075098;28;20024;-60
2021/11/27 08:04:52;;;;;;;21.40;5.03;;;19.90;88.40;;;;;;5074776;28;20055;-60
2021/11/27 08:07:19;;;;;;;23.35;4.70;;;19.90;88.40;;;;;;5073705;28;20040;-57
2021/11/27 08:09:47;;;;;;;14.40;3.90;;;19.90;88.60;;;;;;5074428;28;20025;-61
2021/11/27 08:12:14;;;;;;;18.52;4.65;;;19.80;88.60;;;;;;5074634;28;20036;-60
2021/11/27 08:14:41;;;;;;;15.10;4.00;;;19.80;88.80;;;;;;5075118;28;20476;-60
2021/11/27 08:17:09;;;;;;;15.00;3.97;;;19.80;88.80;;;;;;5074978;28;20463;-59
2021/11/27 08:19:36;;;;;;;14.23;3.70;;;19.70;89.00;;;;;;5071302;28;20036;-54
2021/11/27 08:22:04;;;;;;;14.93;4.47;;;19.70;89.60;;;;;;5069014;28;20499;-58
2021/11/27 08:24:31;;;;;;;13.88;5.07;;;19.70;90.30;;;;;;5072711;28;20028;-54
2021/11/27 08:27:02;;;;;;;27.40;7.47;;;19.70;90.20;;;;;;5073788;28;20033;-52
2021/11/27 08:29:29;;;;;;;22.15;8.23;;;19.70;90.20;;;;;;5072126;28;20029;-57
2021/11/27 08:31:57;;;;;;;31.45;10.23;;;19.70;90.00;;;;;;5071815;28;20147;-56
2021/11/27 08:34:24;;;;;;;33.90;10.70;;;19.70;90.10;;;;;;5068233;28;20028;-60
2021/11/27 08:36:52;;;;;;;30.30;10.43;;;19.70;90.00;;;;;;5068533;28;20024;-62
2021/11/27 08:39:19;;;;;;;25.35;10.63;;;19.70;89.90;;;;;;5072217;28;20499;-56
2021/11/27 08:41:47;;;;;;;37.10;14.63;;;19.70;90.00;;;;;;5071344;28;20029;-61
2021/11/27 08:44:15;;;;;;;34.92;13.15;;;19.70;90.00;;;;;;5065639;28;20124;-55
2021/11/27 08:46:46;;;;;;;34.22;13.57;;;19.70;90.00;;;;;;5070644;28;20138;-57
2021/11/27 08:49:13;;;;;;;30.90;13.60;;;19.80;90.00;;;;;;5068467;28;20031;-54
2021/11/27 08:51:42;;;;;;;38.08;14.63;;;19.80;90.10;;;;;;5069153;28;20020;-54
2021/11/27 08:54:11;;;;;;;38.53;14.27;;;19.70;90.00;;;;;;5067251;28;20045;-57
2021/11/27 08:56:38;;;;;;;35.63;13.05;;;19.80;90.00;;;;;;5068005;28;20078;-57
2021/11/27 08:59:05;;;;;;;35.85;12.52;;;19.80;90.00;;;;;;5068993;28;20070;-57
2021/11/27 09:01:33;;;;;;;31.38;13.02;;;19.70;89.90;;;;;;5072014;28;20025;-56
2021/11/27 09:04:00;;;;;;;28.58;12.05;;;19.80;89.90;;;;;;5065569;28;20021;-60
2021/11/27 09:06:28;;;;;;;35.38;13.10;;;19.70;90.00;;;;;;5067121;28;20025;-54
2021/11/27 09:08:56;;;;;;;30.70;12.45;;;19.70;89.80;;;;;;5069247;28;20472;-54
2021/11/27 09:11:28;;;;;;;33.90;13.98;;;19.70;89.90;;;;;;5071108;28;20132;-54
2021/11/27 09:13:56;;;;;;;27.95;11.32;;;19.70;90.00;;;;;;5065001;28;20475;-54
2021/11/27 09:16:23;;;;;;;27.33;10.85;;;19.70;90.00;;;;;;5071473;28;20471;-56
2021/11/27 09:18:51;;;;;;;33.13;11.95;;;19.60;88.20;;;;;;5071279;28;20475;-55
2021/11/27 09:21:18;;;;;;;28.45;10.30;;;19.60;90.00;;;;;;5071090;28;20029;-51
2021/11/27 09:23:46;;;;;;;27.27;10.15;;;19.60;90.00;;;;;;5067513;28;20025;-51
2021/11/27 09:26:14;;;;;;;24.38;10.00;;;19.60;89.90;;;;;;5070953;28;20616;-59
2021/11/27 09:28:42;;;;;;;22.02;9.75;;;19.60;89.90;;;;;;5071563;28;20406;-54
2021/11/27 09:31:38;;;;;;;;;;;;;;;;;;;;;
2021/11/27 09:34:08;;;;;;;20.42;9.07;;;19.60;89.80;;;;;;5066731;28;20047;-61
2021/11/27 09:36:36;;;;;;;23.63;8.82;;;19.60;89.90;;;;;;5070809;28;20082;-56
2021/11/27 09:39:10;;;;;;;24.80;9.52;;;19.70;89.90;;;;;;5070995;28;20063;-53
2021/11/27 09:41:41;;;;;;;27.42;9.23;;;19.60;89.70;;;;;;5071200;28;20032;-53
2021/11/27 09:44:11;;;;;;;20.65;8.05;;;19.60;89.90;;;;;;5067202;28;20035;-59
2021/11/27 09:46:41;;;;;;;27.17;8.70;;;19.60;89.90;;;;;;5071135;28;20046;-56
2021/11/27 09:49:35;;;;;;;20.15;8.73;;;19.60;90.00;;;;;;5070698;28;20029;-56
2021/11/27 09:52:03;;;;;;;20.45;6.90;;;19.60;90.00;;;;;;5070391;28;20037;-55
2021/11/27 09:54:32;;;;;;;15.27;6.75;;;19.60;90.00;;;;;;5067492;28;20048;-53
2021/11/27 09:56:59;;;;;;;22.65;7.78;;;19.60;90.00;;;;;;5070155;28;20029;-53
2021/11/27 09:59:27;;;;;;;15.48;6.50;;;19.60;89.70;;;;;;5070930;28;20028;-55
2021/11/27 10:01:56;;;;;;;19.02;7.47;;;19.60;89.90;;;;;;5066472;28;20028;-53
2021/11/27 10:04:24;;;;;;;21.58;6.93;;;19.60;90.00;;;;;;5066308;28;20021;-54
2021/11/27 10:06:52;;;;;;;20.58;7.07;;;19.60;90.00;;;;;;5070123;28;20459;-56
2021/11/27 10:09:24;;;;;;;17.25;6.75;;;19.60;90.00;;;;;;5070986;28;20037;-54
2021/11/27 10:11:54;;;;;;;19.08;7.35;;;19.60;90.00;;;;;;5069610;28;20044;-56
2021/11/27 10:14:22;;;;;;;14.75;6.47;;;19.60;90.00;;;;;;5065807;28;20116;-59
2021/11/27 10:17:20;;;;;;;;;;;;;;;;;;;;;
2021/11/27 10:19:56;;;;;;;15.50;5.78;;;19.60;90.00;;;;;;5072386;28;20047;-61
2021/11/27 10:22:42;;;;;;;17.08;6.13;;;19.60;90.00;;;;;;5072575;28;20020;-56
2021/11/27 10:25:27;;;;;;;22.63;6.50;;;19.60;90.10;;;;;;5071136;28;20078;-62
2021/11/27 10:28:12;;;;;;;16.50;6.25;;;19.60;90.10;;;;;;5071185;28;20036;-55
2021/11/27 10:30:55;;;;;;;15.23;5.90;;;19.60;90.20;;;;;;5072751;28;20103;-59
2021/11/27 10:33:39;;;;;;;16.23;5.78;;;19.60;90.10;;;;;;5072799;28;20035;-55
2021/11/27 10:36:11;;;;;;;16.13;5.78;;;19.60;90.20;;;;;;5072250;28;20028;-55
2021/11/27 10:38:43;;;;;;;19.83;6.63;;;19.50;90.10;;;;;;5072808;28;20020;-60
2021/11/27 10:41:17;;;;;;;13.82;5.35;;;19.50;90.20;;;;;;5071370;28;20040;-58
2021/11/27 10:44:03;;;;;;;13.68;5.50;;;19.50;90.20;;;;;;5071935;28;20099;-59
2021/11/27 10:46:34;;;;;;;19.05;5.93;;;19.60;90.20;;;;;;5072246;28;20101;-59
2021/11/27 10:49:04;;;;;;;19.43;5.70;;;19.50;90.20;;;;;;5072113;28;20029;-57
2021/11/27 10:51:32;;;;;;;16.45;5.20;;;19.50;90.20;;;;;;5072428;28;20025;-57
2021/11/27 10:54:06;;;;;;;18.73;5.47;;;19.50;90.30;;;;;;5071635;28;20402;-60
2021/11/27 10:56:45;;;;;;;18.88;5.53;;;19.50;90.30;;;;;;5072535;28;20414;-56
2021/11/27 10:59:17;;;;;;;14.63;4.45;;;19.50;90.30;;;;;;5072422;28;20017;-52
2021/11/27 11:02:07;;;;;;;19.60;5.72;;;19.50;90.30;;;;;;5072028;28;20032;-58
2021/11/27 11:04:35;;;;;;;13.73;4.55;;;19.50;90.30;;;;;;5072343;28;20108;-56
2021/11/27 11:07:25;;;;;;;14.02;4.80;;;19.50;90.40;;;;;;5072718;28;20384;-60
2021/11/27 11:10:07;;;;;;;14.27;4.80;;;19.50;90.40;;;;;;5072992;28;20029;-60
2021/11/27 11:12:39;;;;;;;13.13;5.32;;;19.40;90.40;;;;;;5072615;28;20025;-63
2021/11/27 11:15:29;;;;;;;15.55;4.53;;;19.50;90.50;;;;;;5072251;28;20036;-62
2021/11/27 11:18:05;;;;;;;14.95;4.90;;;19.40;90.50;;;;;;5071860;28;20024;-60
2021/11/27 11:20:33;;;;;;;13.73;4.45;;;19.40;90.50;;;;;;5074397;28;20078;-57
2021/11/27 11:23:08;;;;;;;21.95;5.32;;;19.40;90.60;;;;;;5074077;28;20052;-63
2021/11/27 11:25:55;;;;;;;14.35;4.85;;;19.40;90.70;;;;;;5075329;28;20077;-58
2021/11/27 11:28:24;;;;;;;20.58;5.47;;;19.40;91.10;;;;;;5068270;28;20063;-58
2021/11/27 11:30:55;;;;;;;12.95;5.13;;;19.40;91.30;;;;;;5072758;28;20029;-56
2021/11/27 11:33:25;;;;;;;14.23;4.65;;;19.50;91.20;;;;;;5073205;28;20028;-58
2021/11/27 11:35:52;;;;;;;18.33;4.85;;;19.50;91.10;;;;;;5071878;28;20021;-56
2021/11/27 11:38:28;;;;;;;9.80;4.05;;;19.50;91.20;;;;;;5072342;28;20028;-55
2021/11/27 11:40:56;;;;;;;13.50;4.28;;;19.40;91.10;;;;;;5072487;28;20029;-56
2021/11/27 11:43:23;;;;;;;16.40;4.93;;;19.50;91.10;;;;;;5072946;28;20039;-58
2021/11/27 11:45:51;;;;;;;18.45;4.57;;;19.40;91.10;;;;;;5071506;28;20375;-56
2021/11/27 11:48:27;;;;;;;22.00;5.15;;;19.40;91.10;;;;;;5070245;28;20036;-60
2021/11/27 11:51:10;;;;;;;13.75;4.05;;;19.40;91.10;;;;;;5072729;28;20039;-60
2021/11/27 11:53:45;;;;;;;16.80;4.18;;;19.40;91.10;;;;;;5072361;28;20056;-60
2021/11/27 11:56:13;;;;;;;13.65;4.35;;;19.40;91.00;;;;;;5067788;28;20040;-57
2021/11/27 11:58:44;;;;;;;14.48;4.57;;;19.40;90.90;;;;;;5072986;28;20107;-55
2021/11/27 12:01:21;;;;;;;12.48;3.92;;;19.40;91.00;;;;;;5072533;28;20040;-54
2021/11/27 12:03:51;;;;;;;13.38;4.10;;;19.30;91.00;;;;;;5069117;28;20043;-58
2021/11/27 12:06:26;;;;;;;12.20;3.90;;;19.40;91.00;;;;;;5064587;28;20656;-56
2021/11/27 12:08:53;;;;;;;13.90;3.90;;;19.40;91.00;;;;;;5072916;28;20090;-54
2021/11/27 12:11:41;;;;;;;18.67;5.68;;;19.40;91.00;;;;;;5072634;28;20072;-55
2021/11/27 12:14:33;;;;;;;18.35;4.95;;;19.40;91.00;;;;;;5070688;28;20055;-57
2021/11/27 12:17:03;;;;;;;18.63;4.20;;;19.40;90.90;;;;;;5063495;28;20045;-54
2021/11/27 12:19:50;;;;;;;18.88;5.40;;;19.40;90.90;;;;;;5072538;28;20349;-56
2021/11/27 12:22:48;;;;;;;17.70;4.35;;;19.40;90.80;;;;;;5072616;28;20036;-59
2021/11/27 12:25:28;;;;;;;16.45;5.18;;;19.30;90.80;;;;;;5070728;28;20060;-55
2021/11/27 12:28:08;;;;;;;16.17;4.75;;;19.30;90.80;;;;;;5064866;28;20033;-53
2021/11/27 12:30:41;;;;;;;18.48;4.75;;;19.30;90.90;;;;;;5068510;28;20028;-58
2021/11/27 12:33:29;;;;;;;14.75;4.55;;;19.40;90.80;;;;;;5071204;28;20029;-61
2021/11/27 12:35:56;;;;;;;15.50;4.07;;;19.30;90.90;;;;;;5070037;28;20029;-58
2021/11/27 12:38:33;;;;;;;20.35;5.10;;;19.40;90.90;;;;;;5067465;28;20024;-60
2021/11/27 12:41:01;;;;;;;12.00;4.00;;;19.30;90.80;;;;;;5072112;28;20203;-56
2021/11/27 12:43:28;;;;;;;12.50;3.88;;;19.40;90.90;;;;;;5072274;28;20542;-55
2021/11/27 12:45:57;;;;;;;16.77;3.63;;;19.30;90.90;;;;;;5070186;28;20103;-56
2021/11/27 12:48:34;;;;;;;12.10;3.70;;;19.30;90.70;;;;;;5066802;28;20025;-55
2021/11/27 12:51:17;;;;;;;12.23;4.70;;;19.40;90.90;;;;;;5070769;28;20028;-58
2021/11/27 12:53:59;;;;;;;16.15;4.55;;;19.30;90.80;;;;;;5070816;28;20408;-55
2021/11/27 12:56:30;;;;;;;;;;;19.40;90.80;;;;;;5064124;28;20118;-58
2021/11/27 12:59:01;;;;;;;12.48;4.57;;;19.30;90.90;;;;;;5069470;28;20310;-50